createdAt,value
2022-10-26T00:00:18.205Z,15.40
2022-10-26T00:15:10.095Z,15.36
2022-10-26T00:30:01.794Z,15.29
2022-10-26T00:44:59.230Z,15.22
2022-10-26T00:59:55.119Z,15.14
2022-10-26T01:14:46.168Z,15.05
2022-10-26T01:30:15.980Z,15.02
2022-10-26T01:45:13.025Z,15.01
2022-10-26T02:00:10.227Z,14.96
2022-10-26T02:15:04.549Z,14.97
2022-10-26T02:29:56.205Z,14.98
2022-10-26T02:44:49.853Z,14.94
2022-10-26T02:59:44.455Z,14.86
2022-10-26T03:14:35.494Z,14.68
2022-10-26T03:29:27.169Z,14.54
2022-10-26T03:44:18.263Z,14.43
2022-10-26T03:59:09.844Z,14.36
2022-10-26T04:14:01.288Z,14.33
2022-10-26T04:28:52.623Z,14.26
2022-10-26T04:43:44.351Z,14.31
2022-10-26T04:58:36.569Z,14.37
2022-10-26T05:13:28.257Z,14.37
2022-10-26T05:28:20.511Z,14.45
2022-10-26T05:43:12.825Z,14.56
2022-10-26T05:58:05.253Z,14.66
2022-10-26T06:12:56.740Z,14.75
2022-10-26T06:28:03.329Z,14.76
2022-10-26T06:43:00.662Z,14.78
2022-10-26T06:57:52.456Z,14.79
2022-10-26T07:12:43.765Z,14.83
2022-10-26T07:27:35.480Z,14.93
2022-10-26T07:42:26.617Z,15.09
2022-10-26T07:57:18.715Z,15.25
2022-10-26T08:12:11.139Z,15.47
2022-10-26T08:27:03.664Z,15.72
2022-10-26T08:41:55.908Z,15.80
2022-10-26T08:56:50.715Z,16.05
2022-10-26T09:12:02.925Z,16.43
2022-10-26T09:27:23.566Z,16.95
2022-10-26T09:42:27.673Z,17.38
2022-10-26T09:57:25.188Z,18.02
2022-10-26T10:12:18.237Z,18.54
2022-10-26T10:27:13.460Z,18.74
2022-10-26T10:42:23.228Z,18.93
2022-10-26T10:57:21.790Z,19.25
2022-10-26T11:12:19.536Z,19.69
2022-10-26T11:27:17.730Z,19.90
2022-10-26T11:42:15.930Z,20.16
2022-10-26T11:57:11.239Z,20.54
2022-10-26T12:12:07.771Z,20.88
2022-10-26T12:27:04.847Z,21.10
2022-10-26T12:41:59.223Z,21.38
2022-10-26T12:57:00.986Z,21.57
2022-10-26T13:11:57.772Z,21.76
2022-10-26T13:27:05.305Z,21.95
2022-10-26T13:42:02.833Z,21.99
2022-10-26T13:56:54.211Z,21.81
2022-10-26T14:11:44.909Z,21.57
2022-10-26T14:26:39.211Z,21.36
2022-10-26T14:41:35.023Z,21.20
2022-10-26T14:56:37.183Z,21.06
2022-10-26T15:11:33.274Z,20.90
2022-10-26T15:26:24.796Z,20.89
2022-10-26T15:41:19.004Z,20.74
2022-10-26T15:56:14.018Z,20.51
2022-10-26T16:11:05.468Z,20.13
2022-10-26T16:25:56.972Z,19.74
2022-10-26T16:40:47.758Z,19.38
2022-10-26T16:55:39.097Z,19.02
2022-10-26T17:10:30.351Z,18.75
2022-10-26T17:25:21.633Z,18.52
2022-10-26T17:40:12.911Z,18.26
2022-10-26T17:55:03.300Z,18.07
2022-10-26T18:10:33.213Z,17.92
2022-10-26T18:25:29.740Z,17.75
2022-10-26T18:40:50.138Z,17.61
2022-10-26T18:55:41.136Z,17.41
2022-10-26T19:10:32.075Z,17.18
2022-10-26T19:25:23.392Z,17.01
2022-10-26T19:40:15.565Z,16.87
2022-10-26T19:55:06.540Z,16.68
2022-10-26T20:09:58.356Z,16.56
2022-10-26T20:24:50.162Z,16.40
2022-10-26T20:39:41.808Z,16.29
2022-10-26T20:54:33.748Z,16.19
2022-10-26T21:09:26.080Z,15.97
2022-10-26T21:24:15.898Z,15.82
2022-10-26T21:39:10.824Z,15.67
2022-10-26T21:54:01.956Z,15.52
2022-10-26T22:08:52.413Z,15.35
2022-10-26T22:23:43.551Z,15.26
2022-10-26T22:38:34.477Z,15.15
2022-10-26T22:53:25.737Z,14.99
2022-10-26T23:08:17.293Z,14.85
2022-10-26T23:23:08.182Z,14.88
2022-10-26T23:37:58.946Z,14.88
2022-10-26T23:52:50.465Z,14.83
